sensor_id;sensor_type;location;lat;lon;timestamp;P1;durP1;ratioP1;P2;durP2;ratioP2
30149;SDS011;16962;48.646;9.026;2024-02-26T00:01:34;3.90;;;2.30;;
30149;SDS011;16962;48.646;9.026;2024-02-26T00:04:23;3.65;;;2.60;;
30149;SDS011;16962;48.646;9.026;2024-02-26T00:07:10;4.85;;;3.08;;
30149;SDS011;16962;48.646;9.026;2024-02-26T00:09:58;4.93;;;2.55;;
30149;SDS011;16962;48.646;9.026;2024-02-26T00:12:46;4.15;;;2.63;;
30149;SDS011;16962;48.646;9.026;2024-02-26T00:15:34;8.07;;;4.45;;
30149;SDS011;16962;48.646;9.026;2024-02-26T00:18:22;8.45;;;4.38;;
30149;SDS011;16962;48.646;9.026;2024-02-26T00:21:10;6.72;;;4.68;;
30149;SDS011;16962;48.646;9.026;2024-02-26T00:23:58;5.55;;;3.35;;
30149;SDS011;16962;48.646;9.026;2024-02-26T00:26:46;6.82;;;3.40;;
30149;SDS011;16962;48.646;9.026;2024-02-26T00:29:40;7.18;;;3.78;;
30149;SDS011;16962;48.646;9.026;2024-02-26T00:32:27;4.40;;;2.90;;
30149;SDS011;16962;48.646;9.026;2024-02-26T00:35:14;2.90;;;2.42;;
30149;SDS011;16962;48.646;9.026;2024-02-26T00:38:03;4.72;;;2.97;;
30149;SDS011;16962;48.646;9.026;2024-02-26T00:40:52;5.03;;;3.55;;
30149;SDS011;16962;48.646;9.026;2024-02-26T00:43:40;4.75;;;3.30;;
30149;SDS011;16962;48.646;9.026;2024-02-26T00:46:29;3.00;;;2.40;;
30149;SDS011;16962;48.646;9.026;2024-02-26T00:49:16;7.90;;;3.80;;
30149;SDS011;16962;48.646;9.026;2024-02-26T00:52:04;2.92;;;2.30;;
30149;SDS011;16962;48.646;9.026;2024-02-26T00:54:51;4.53;;;2.22;;
30149;SDS011;16962;48.646;9.026;2024-02-26T00:57:39;4.97;;;2.75;;
30149;SDS011;16962;48.646;9.026;2024-02-26T01:00:27;4.65;;;3.10;;
30149;SDS011;16962;48.646;9.026;2024-02-26T01:03:15;5.22;;;3.10;;
30149;SDS011;16962;48.646;9.026;2024-02-26T01:06:06;4.28;;;3.30;;
30149;SDS011;16962;48.646;9.026;2024-02-26T01:08:54;4.22;;;2.90;;
30149;SDS011;16962;48.646;9.026;2024-02-26T01:11:41;3.30;;;2.83;;
30149;SDS011;16962;48.646;9.026;2024-02-26T01:14:28;5.50;;;3.00;;
30149;SDS011;16962;48.646;9.026;2024-02-26T01:17:16;4.90;;;2.38;;
30149;SDS011;16962;48.646;9.026;2024-02-26T01:20:05;4.97;;;3.75;;
30149;SDS011;16962;48.646;9.026;2024-02-26T01:22:52;6.00;;;3.95;;
30149;SDS011;16962;48.646;9.026;2024-02-26T01:25:40;8.05;;;4.15;;
30149;SDS011;16962;48.646;9.026;2024-02-26T01:28:27;5.03;;;3.00;;
30149;SDS011;16962;48.646;9.026;2024-02-26T01:31:15;6.60;;;2.67;;
30149;SDS011;16962;48.646;9.026;2024-02-26T01:34:03;3.03;;;2.20;;
30149;SDS011;16962;48.646;9.026;2024-02-26T01:36:51;2.63;;;1.88;;
30149;SDS011;16962;48.646;9.026;2024-02-26T01:39:38;3.13;;;2.03;;
30149;SDS011;16962;48.646;9.026;2024-02-26T01:42:30;2.55;;;2.00;;
30149;SDS011;16962;48.646;9.026;2024-02-26T01:45:20;2.58;;;1.58;;
30149;SDS011;16962;48.646;9.026;2024-02-26T01:48:11;1.67;;;1.58;;
30149;SDS011;16962;48.646;9.026;2024-02-26T01:50:59;2.08;;;1.50;;
30149;SDS011;16962;48.646;9.026;2024-02-26T01:53:47;1.73;;;1.40;;
30149;SDS011;16962;48.646;9.026;2024-02-26T01:56:35;1.40;;;1.15;;
30149;SDS011;16962;48.646;9.026;2024-02-26T01:59:25;1.35;;;1.15;;
30149;SDS011;16962;48.646;9.026;2024-02-26T02:02:13;3.65;;;1.50;;
30149;SDS011;16962;48.646;9.026;2024-02-26T02:05:02;1.30;;;1.20;;
30149;SDS011;16962;48.646;9.026;2024-02-26T02:07:51;2.25;;;1.00;;
30149;SDS011;16962;48.646;9.026;2024-02-26T02:10:40;1.38;;;1.15;;
30149;SDS011;16962;48.646;9.026;2024-02-26T02:13:29;1.10;;;1.00;;
30149;SDS011;16962;48.646;9.026;2024-02-26T02:16:16;0.80;;;0.80;;
30149;SDS011;16962;48.646;9.026;2024-02-26T02:19:06;0.95;;;0.95;;
30149;SDS011;16962;48.646;9.026;2024-02-26T02:21:53;0.90;;;0.90;;
30149;SDS011;16962;48.646;9.026;2024-02-26T02:24:40;1.70;;;1.60;;
30149;SDS011;16962;48.646;9.026;2024-02-26T02:27:28;2.55;;;1.27;;
30149;SDS011;16962;48.646;9.026;2024-02-26T02:30:16;1.30;;;1.20;;
30149;SDS011;16962;48.646;9.026;2024-02-26T02:33:04;1.10;;;1.00;;
30149;SDS011;16962;48.646;9.026;2024-02-26T02:35:51;8.55;;;1.40;;
30149;SDS011;16962;48.646;9.026;2024-02-26T02:38:50;2.45;;;1.52;;
30149;SDS011;16962;48.646;9.026;2024-02-26T02:41:38;1.00;;;1.00;;
30149;SDS011;16962;48.646;9.026;2024-02-26T02:44:25;1.85;;;1.42;;
30149;SDS011;16962;48.646;9.026;2024-02-26T02:47:13;1.42;;;1.20;;
30149;SDS011;16962;48.646;9.026;2024-02-26T02:50:01;1.40;;;1.30;;
30149;SDS011;16962;48.646;9.026;2024-02-26T02:52:49;1.00;;;1.00;;
30149;SDS011;16962;48.646;9.026;2024-02-26T02:55:37;0.90;;;0.90;;
30149;SDS011;16962;48.646;9.026;2024-02-26T02:58:24;1.20;;;1.10;;
30149;SDS011;16962;48.646;9.026;2024-02-26T03:01:13;3.15;;;1.38;;
30149;SDS011;16962;48.646;9.026;2024-02-26T03:04:00;1.45;;;1.35;;
30149;SDS011;16962;48.646;9.026;2024-02-26T03:06:48;2.05;;;1.00;;
30149;SDS011;16962;48.646;9.026;2024-02-26T03:09:35;1.02;;;0.77;;
30149;SDS011;16962;48.646;9.026;2024-02-26T03:12:23;0.90;;;0.90;;
30149;SDS011;16962;48.646;9.026;2024-02-26T03:15:11;0.90;;;0.90;;
30149;SDS011;16962;48.646;9.026;2024-02-26T03:17:59;0.93;;;0.90;;
30149;SDS011;16962;48.646;9.026;2024-02-26T03:20:46;0.80;;;0.80;;
30149;SDS011;16962;48.646;9.026;2024-02-26T03:23:33;1.02;;;0.93;;
30149;SDS011;16962;48.646;9.026;2024-02-26T03:26:23;2.20;;;0.90;;
30149;SDS011;16962;48.646;9.026;2024-02-26T03:29:10;0.80;;;0.80;;
30149;SDS011;16962;48.646;9.026;2024-02-26T03:31:57;1.02;;;0.90;;
30149;SDS011;16962;48.646;9.026;2024-02-26T03:34:45;1.10;;;1.00;;
30149;SDS011;16962;48.646;9.026;2024-02-26T03:37:32;1.20;;;1.10;;
30149;SDS011;16962;48.646;9.026;2024-02-26T03:40:20;2.25;;;1.48;;
30149;SDS011;16962;48.646;9.026;2024-02-26T03:43:07;1.10;;;1.10;;
30149;SDS011;16962;48.646;9.026;2024-02-26T03:45:55;1.25;;;1.10;;
30149;SDS011;16962;48.646;9.026;2024-02-26T03:48:43;1.25;;;1.10;;
30149;SDS011;16962;48.646;9.026;2024-02-26T03:51:31;1.20;;;1.10;;
30149;SDS011;16962;48.646;9.026;2024-02-26T03:54:19;1.45;;;1.10;;
30149;SDS011;16962;48.646;9.026;2024-02-26T03:57:08;1.17;;;1.08;;
30149;SDS011;16962;48.646;9.026;2024-02-26T03:59:56;1.30;;;1.20;;
30149;SDS011;16962;48.646;9.026;2024-02-26T04:02:43;1.15;;;1.10;;
30149;SDS011;16962;48.646;9.026;2024-02-26T04:05:31;1.75;;;1.35;;
30149;SDS011;16962;48.646;9.026;2024-02-26T04:08:18;1.23;;;1.13;;
30149;SDS011;16962;48.646;9.026;2024-02-26T04:11:06;2.33;;;1.45;;
30149;SDS011;16962;48.646;9.026;2024-02-26T04:13:54;1.30;;;1.20;;
30149;SDS011;16962;48.646;9.026;2024-02-26T04:16:43;2.28;;;1.55;;
30149;SDS011;16962;48.646;9.026;2024-02-26T04:19:30;1.50;;;1.40;;
30149;SDS011;16962;48.646;9.026;2024-02-26T04:22:19;4.05;;;1.38;;
30149;SDS011;16962;48.646;9.026;2024-02-26T04:25:06;3.45;;;1.70;;
30149;SDS011;16962;48.646;9.026;2024-02-26T04:27:54;1.98;;;1.60;;
30149;SDS011;16962;48.646;9.026;2024-02-26T04:30:41;1.40;;;1.30;;
30149;SDS011;16962;48.646;9.026;2024-02-26T04:33:29;1.20;;;1.10;;
30149;SDS011;16962;48.646;9.026;2024-02-26T04:36:16;1.20;;;1.10;;
30149;SDS011;16962;48.646;9.026;2024-02-26T04:39:04;1.30;;;1.20;;
30149;SDS011;16962;48.646;9.026;2024-02-26T04:41:51;0.98;;;0.98;;
30149;SDS011;16962;48.646;9.026;2024-02-26T04:44:39;1.15;;;1.10;;
30149;SDS011;16962;48.646;9.026;2024-02-26T04:47:26;0.98;;;0.98;;
30149;SDS011;16962;48.646;9.026;2024-02-26T04:50:14;2.35;;;1.15;;
30149;SDS011;16962;48.646;9.026;2024-02-26T04:53:01;2.63;;;1.88;;
30149;SDS011;16962;48.646;9.026;2024-02-26T04:55:49;1.55;;;1.45;;
30149;SDS011;16962;48.646;9.026;2024-02-26T04:58:36;1.50;;;1.40;;
30149;SDS011;16962;48.646;9.026;2024-02-26T05:01:23;5.90;;;1.52;;
30149;SDS011;16962;48.646;9.026;2024-02-26T05:04:11;1.63;;;1.20;;
30149;SDS011;16962;48.646;9.026;2024-02-26T05:06:59;2.80;;;1.30;;
30149;SDS011;16962;48.646;9.026;2024-02-26T05:09:47;2.13;;;1.50;;
30149;SDS011;16962;48.646;9.026;2024-02-26T05:12:36;2.50;;;1.60;;
30149;SDS011;16962;48.646;9.026;2024-02-26T05:15:24;1.60;;;1.50;;
30149;SDS011;16962;48.646;9.026;2024-02-26T05:18:12;2.35;;;1.60;;
30149;SDS011;16962;48.646;9.026;2024-02-26T05:21:00;1.95;;;1.67;;
30149;SDS011;16962;48.646;9.026;2024-02-26T05:23:47;4.80;;;2.50;;
30149;SDS011;16962;48.646;9.026;2024-02-26T05:26:35;2.00;;;1.80;;
30149;SDS011;16962;48.646;9.026;2024-02-26T05:29:22;2.53;;;1.90;;
30149;SDS011;16962;48.646;9.026;2024-02-26T05:32:10;2.78;;;2.10;;
30149;SDS011;16962;48.646;9.026;2024-02-26T05:34:57;2.67;;;2.10;;
30149;SDS011;16962;48.646;9.026;2024-02-26T05:37:44;2.28;;;2.08;;
30149;SDS011;16962;48.646;9.026;2024-02-26T05:40:32;2.40;;;1.75;;
30149;SDS011;16962;48.646;9.026;2024-02-26T05:43:19;3.13;;;1.92;;
30149;SDS011;16962;48.646;9.026;2024-02-26T05:46:07;3.33;;;2.33;;
30149;SDS011;16962;48.646;9.026;2024-02-26T05:48:55;2.72;;;2.17;;
30149;SDS011;16962;48.646;9.026;2024-02-26T05:51:43;4.18;;;2.30;;
30149;SDS011;16962;48.646;9.026;2024-02-26T05:54:30;3.83;;;2.67;;
30149;SDS011;16962;48.646;9.026;2024-02-26T05:57:20;3.28;;;2.22;;
30149;SDS011;16962;48.646;9.026;2024-02-26T06:00:09;3.67;;;2.72;;
30149;SDS011;16962;48.646;9.026;2024-02-26T06:03:01;2.25;;;2.05;;
30149;SDS011;16962;48.646;9.026;2024-02-26T06:05:50;3.08;;;2.50;;
30149;SDS011;16962;48.646;9.026;2024-02-26T06:08:38;4.43;;;2.55;;
30149;SDS011;16962;48.646;9.026;2024-02-26T06:11:25;2.42;;;2.22;;
30149;SDS011;16962;48.646;9.026;2024-02-26T06:14:14;2.95;;;2.65;;
30149;SDS011;16962;48.646;9.026;2024-02-26T06:17:05;3.07;;;2.30;;
30149;SDS011;16962;48.646;9.026;2024-02-26T06:19:54;2.95;;;2.30;;
30149;SDS011;16962;48.646;9.026;2024-02-26T06:22:41;2.88;;;2.47;;
30149;SDS011;16962;48.646;9.026;2024-02-26T06:25:32;6.47;;;3.03;;
30149;SDS011;16962;48.646;9.026;2024-02-26T06:28:19;3.95;;;3.05;;
30149;SDS011;16962;48.646;9.026;2024-02-26T06:31:08;3.28;;;2.72;;
30149;SDS011;16962;48.646;9.026;2024-02-26T06:33:56;5.25;;;3.78;;
30149;SDS011;16962;48.646;9.026;2024-02-26T06:36:45;6.72;;;3.40;;
30149;SDS011;16962;48.646;9.026;2024-02-26T06:39:35;4.95;;;3.53;;
30149;SDS011;16962;48.646;9.026;2024-02-26T06:42:25;5.43;;;3.45;;
30149;SDS011;16962;48.646;9.026;2024-02-26T06:45:13;7.03;;;4.18;;
30149;SDS011;16962;48.646;9.026;2024-02-26T06:48:01;4.30;;;2.67;;
30149;SDS011;16962;48.646;9.026;2024-02-26T06:50:49;3.33;;;1.90;;
30149;SDS011;16962;48.646;9.026;2024-02-26T06:53:37;3.00;;;2.20;;
30149;SDS011;16962;48.646;9.026;2024-02-26T06:56:33;2.22;;;2.00;;
30149;SDS011;16962;48.646;9.026;2024-02-26T06:59:20;2.60;;;2.20;;
30149;SDS011;16962;48.646;9.026;2024-02-26T07:02:08;3.15;;;1.90;;
30149;SDS011;16962;48.646;9.026;2024-02-26T07:04:55;2.78;;;2.03;;
30149;SDS011;16962;48.646;9.026;2024-02-26T07:07:47;4.30;;;1.90;;
30149;SDS011;16962;48.646;9.026;2024-02-26T07:10:34;2.90;;;1.75;;
30149;SDS011;16962;48.646;9.026;2024-02-26T07:13:23;5.78;;;1.60;;
30149;SDS011;16962;48.646;9.026;2024-02-26T07:16:10;2.45;;;1.50;;
30149;SDS011;16962;48.646;9.026;2024-02-26T07:18:57;1.73;;;1.33;;
30149;SDS011;16962;48.646;9.026;2024-02-26T07:21:45;2.63;;;1.55;;
30149;SDS011;16962;48.646;9.026;2024-02-26T07:24:45;2.65;;;2.05;;
30149;SDS011;16962;48.646;9.026;2024-02-26T07:27:33;3.03;;;2.40;;
30149;SDS011;16962;48.646;9.026;2024-02-26T07:30:21;4.93;;;2.70;;
30149;SDS011;16962;48.646;9.026;2024-02-26T07:33:11;4.13;;;2.90;;
30149;SDS011;16962;48.646;9.026;2024-02-26T07:36:00;3.78;;;2.90;;
30149;SDS011;16962;48.646;9.026;2024-02-26T07:38:47;4.30;;;3.00;;
30149;SDS011;16962;48.646;9.026;2024-02-26T07:41:36;3.22;;;2.38;;
30149;SDS011;16962;48.646;9.026;2024-02-26T07:44:25;4.13;;;2.45;;
30149;SDS011;16962;48.646;9.026;2024-02-26T07:47:16;4.22;;;2.92;;
30149;SDS011;16962;48.646;9.026;2024-02-26T07:50:08;4.20;;;2.53;;
30149;SDS011;16962;48.646;9.026;2024-02-26T07:52:57;3.25;;;2.63;;
30149;SDS011;16962;48.646;9.026;2024-02-26T07:55:45;2.35;;;2.15;;
30149;SDS011;16962;48.646;9.026;2024-02-26T07:58:33;2.03;;;1.85;;
30149;SDS011;16962;48.646;9.026;2024-02-26T08:01:24;5.43;;;2.15;;
30149;SDS011;16962;48.646;9.026;2024-02-26T08:04:13;3.35;;;2.20;;
30149;SDS011;16962;48.646;9.026;2024-02-26T08:07:05;2.30;;;2.00;;
30149;SDS011;16962;48.646;9.026;2024-02-26T08:09:54;3.30;;;2.42;;
30149;SDS011;16962;48.646;9.026;2024-02-26T08:12:43;2.15;;;1.95;;
30149;SDS011;16962;48.646;9.026;2024-02-26T08:15:32;2.72;;;1.90;;
30149;SDS011;16962;48.646;9.026;2024-02-26T08:18:24;3.33;;;1.98;;
30149;SDS011;16962;48.646;9.026;2024-02-26T08:21:13;2.95;;;2.20;;
30149;SDS011;16962;48.646;9.026;2024-02-26T08:24:00;2.35;;;1.95;;
30149;SDS011;16962;48.646;9.026;2024-02-26T08:26:50;3.03;;;2.20;;
30149;SDS011;16962;48.646;9.026;2024-02-26T08:29:37;5.35;;;2.25;;
30149;SDS011;16962;48.646;9.026;2024-02-26T08:32:28;5.57;;;2.10;;
30149;SDS011;16962;48.646;9.026;2024-02-26T08:35:16;1.90;;;1.80;;
30149;SDS011;16962;48.646;9.026;2024-02-26T08:38:03;2.83;;;1.85;;
30149;SDS011;16962;48.646;9.026;2024-02-26T08:40:51;2.38;;;1.85;;
30149;SDS011;16962;48.646;9.026;2024-02-26T08:43:47;1.80;;;1.70;;
30149;SDS011;16962;48.646;9.026;2024-02-26T08:46:36;3.67;;;1.90;;
30149;SDS011;16962;48.646;9.026;2024-02-26T08:49:25;2.97;;;1.92;;
30149;SDS011;16962;48.646;9.026;2024-02-26T08:52:15;4.00;;;2.40;;
30149;SDS011;16962;48.646;9.026;2024-02-26T08:55:03;3.63;;;2.28;;
30149;SDS011;16962;48.646;9.026;2024-02-26T08:57:51;3.25;;;2.00;;
30149;SDS011;16962;48.646;9.026;2024-02-26T09:00:39;2.65;;;1.73;;
30149;SDS011;16962;48.646;9.026;2024-02-26T09:03:30;3.33;;;1.90;;
30149;SDS011;16962;48.646;9.026;2024-02-26T09:06:20;1.67;;;1.55;;
30149;SDS011;16962;48.646;9.026;2024-02-26T09:09:10;1.83;;;1.50;;
30149;SDS011;16962;48.646;9.026;2024-02-26T09:11:58;2.22;;;1.65;;
30149;SDS011;16962;48.646;9.026;2024-02-26T09:14:46;1.92;;;1.65;;
30149;SDS011;16962;48.646;9.026;2024-02-26T09:17:35;2.55;;;1.75;;
30149;SDS011;16962;48.646;9.026;2024-02-26T09:20:23;2.50;;;1.38;;
30149;SDS011;16962;48.646;9.026;2024-02-26T09:23:14;1.52;;;1.40;;
30149;SDS011;16962;48.646;9.026;2024-02-26T09:26:01;1.42;;;1.33;;
30149;SDS011;16962;48.646;9.026;2024-02-26T09:28:49;1.98;;;1.48;;
30149;SDS011;16962;48.646;9.026;2024-02-26T09:31:37;1.77;;;1.30;;
30149;SDS011;16962;48.646;9.026;2024-02-26T09:34:26;3.25;;;1.42;;
30149;SDS011;16962;48.646;9.026;2024-02-26T09:37:14;1.48;;;1.30;;
30149;SDS011;16962;48.646;9.026;2024-02-26T09:40:08;3.03;;;1.80;;
30149;SDS011;16962;48.646;9.026;2024-02-26T09:43:02;1.58;;;1.48;;
30149;SDS011;16962;48.646;9.026;2024-02-26T09:45:52;4.35;;;2.15;;
30149;SDS011;16962;48.646;9.026;2024-02-26T09:48:42;2.17;;;1.20;;
30149;SDS011;16962;48.646;9.026;2024-02-26T09:51:36;1.88;;;1.30;;
30149;SDS011;16962;48.646;9.026;2024-02-26T09:54:25;1.73;;;1.15;;
30149;SDS011;16962;48.646;9.026;2024-02-26T09:57:20;2.63;;;1.35;;
30149;SDS011;16962;48.646;9.026;2024-02-26T10:00:14;2.70;;;1.15;;
30149;SDS011;16962;48.646;9.026;2024-02-26T10:03:09;1.17;;;1.10;;
30149;SDS011;16962;48.646;9.026;2024-02-26T10:06:02;1.00;;;0.98;;
30149;SDS011;16962;48.646;9.026;2024-02-26T10:08:56;7.55;;;1.50;;
30149;SDS011;16962;48.646;9.026;2024-02-26T10:11:46;3.10;;;1.00;;
30149;SDS011;16962;48.646;9.026;2024-02-26T10:14:36;3.25;;;1.20;;
30149;SDS011;16962;48.646;9.026;2024-02-26T10:17:24;1.20;;;1.00;;
30149;SDS011;16962;48.646;9.026;2024-02-26T10:20:17;1.85;;;1.10;;
30149;SDS011;16962;48.646;9.026;2024-02-26T10:23:09;1.65;;;1.00;;
30149;SDS011;16962;48.646;9.026;2024-02-26T10:25:59;2.42;;;1.10;;
30149;SDS011;16962;48.646;9.026;2024-02-26T10:28:49;2.65;;;1.30;;
30149;SDS011;16962;48.646;9.026;2024-02-26T10:31:52;3.08;;;1.55;;
30149;SDS011;16962;48.646;9.026;2024-02-26T10:34:39;1.35;;;1.10;;
30149;SDS011;16962;48.646;9.026;2024-02-26T10:37:30;3.42;;;1.00;;
30149;SDS011;16962;48.646;9.026;2024-02-26T10:40:18;15.65;;;1.65;;
30149;SDS011;16962;48.646;9.026;2024-02-26T10:43:06;2.70;;;1.70;;
30149;SDS011;16962;48.646;9.026;2024-02-26T10:45:55;2.28;;;1.33;;
30149;SDS011;16962;48.646;9.026;2024-02-26T10:48:50;2.30;;;1.60;;
30149;SDS011;16962;48.646;9.026;2024-02-26T10:51:38;2.03;;;1.38;;
30149;SDS011;16962;48.646;9.026;2024-02-26T10:54:32;2.95;;;1.20;;
30149;SDS011;16962;48.646;9.026;2024-02-26T10:57:20;1.33;;;1.00;;
30149;SDS011;16962;48.646;9.026;2024-02-26T11:00:13;1.70;;;1.40;;
30149;SDS011;16962;48.646;9.026;2024-02-26T11:03:02;4.45;;;1.35;;
30149;SDS011;16962;48.646;9.026;2024-02-26T11:05:56;1.67;;;0.93;;
30149;SDS011;16962;48.646;9.026;2024-02-26T11:08:47;2.83;;;1.67;;
30149;SDS011;16962;48.646;9.026;2024-02-26T11:11:39;3.42;;;1.48;;
30149;SDS011;16962;48.646;9.026;2024-02-26T11:14:29;2.13;;;1.80;;
30149;SDS011;16962;48.646;9.026;2024-02-26T11:17:18;3.22;;;1.30;;
30149;SDS011;16962;48.646;9.026;2024-02-26T11:20:09;2.90;;;1.40;;
30149;SDS011;16962;48.646;9.026;2024-02-26T11:23:00;2.53;;;1.85;;
30149;SDS011;16962;48.646;9.026;2024-02-26T11:25:49;2.08;;;1.42;;
30149;SDS011;16962;48.646;9.026;2024-02-26T11:28:39;3.40;;;1.50;;
30149;SDS011;16962;48.646;9.026;2024-02-26T11:31:29;2.55;;;1.67;;
30149;SDS011;16962;48.646;9.026;2024-02-26T11:34:23;4.43;;;1.40;;
30149;SDS011;16962;48.646;9.026;2024-02-26T11:37:15;2.97;;;1.52;;
30149;SDS011;16962;48.646;9.026;2024-02-26T11:40:04;1.83;;;1.50;;
30149;SDS011;16962;48.646;9.026;2024-02-26T11:42:56;4.20;;;1.70;;
30149;SDS011;16962;48.646;9.026;2024-02-26T11:48:40;2.20;;;1.70;;
30149;SDS011;16962;48.646;9.026;2024-02-26T11:51:33;2.65;;;1.58;;
30149;SDS011;16962;48.646;9.026;2024-02-26T11:57:38;2.67;;;1.63;;
30149;SDS011;16962;48.646;9.026;2024-02-26T12:00:27;3.37;;;1.90;;
30149;SDS011;16962;48.646;9.026;2024-02-26T12:03:19;5.68;;;2.40;;
30149;SDS011;16962;48.646;9.026;2024-02-26T12:06:09;4.00;;;2.50;;
30149;SDS011;16962;48.646;9.026;2024-02-26T12:08:57;2.33;;;1.58;;
30149;SDS011;16962;48.646;9.026;2024-02-26T12:11:44;4.60;;;1.80;;
30149;SDS011;16962;48.646;9.026;2024-02-26T12:14:33;12.68;;;5.60;;
30149;SDS011;16962;48.646;9.026;2024-02-26T12:17:25;9.90;;;4.68;;
30149;SDS011;16962;48.646;9.026;2024-02-26T12:20:15;5.60;;;2.90;;
30149;SDS011;16962;48.646;9.026;2024-02-26T12:23:05;3.20;;;2.22;;
30149;SDS011;16962;48.646;9.026;2024-02-26T12:25:58;2.45;;;1.45;;
30149;SDS011;16962;48.646;9.026;2024-02-26T12:28:48;1.85;;;0.98;;
30149;SDS011;16962;48.646;9.026;2024-02-26T12:31:36;1.70;;;1.10;;
30149;SDS011;16962;48.646;9.026;2024-02-26T12:34:25;2.15;;;0.93;;
30149;SDS011;16962;48.646;9.026;2024-02-26T12:37:16;3.85;;;2.05;;
30149;SDS011;16962;48.646;9.026;2024-02-26T12:40:07;3.70;;;1.30;;
30149;SDS011;16962;48.646;9.026;2024-02-26T12:42:56;2.20;;;1.27;;
30149;SDS011;16962;48.646;9.026;2024-02-26T12:45:44;0.80;;;0.80;;
30149;SDS011;16962;48.646;9.026;2024-02-26T12:48:36;4.60;;;2.35;;
30149;SDS011;16962;48.646;9.026;2024-02-26T12:51:25;2.45;;;1.45;;
30149;SDS011;16962;48.646;9.026;2024-02-26T12:54:15;1.00;;;0.70;;
30149;SDS011;16962;48.646;9.026;2024-02-26T12:57:02;3.38;;;1.10;;
30149;SDS011;16962;48.646;9.026;2024-02-26T12:59:54;2.22;;;1.30;;
30149;SDS011;16962;48.646;9.026;2024-02-26T13:02:41;1.40;;;1.15;;
30149;SDS011;16962;48.646;9.026;2024-02-26T13:05:31;2.35;;;1.63;;
30149;SDS011;16962;48.646;9.026;2024-02-26T13:08:22;1.77;;;1.00;;
30149;SDS011;16962;48.646;9.026;2024-02-26T13:11:12;1.13;;;0.85;;
30149;SDS011;16962;48.646;9.026;2024-02-26T13:14:00;0.70;;;0.60;;
30149;SDS011;16962;48.646;9.026;2024-02-26T13:16:56;0.77;;;0.68;;
30149;SDS011;16962;48.646;9.026;2024-02-26T13:19:51;0.95;;;0.73;;
30149;SDS011;16962;48.646;9.026;2024-02-26T13:22:40;0.50;;;0.50;;
30149;SDS011;16962;48.646;9.026;2024-02-26T13:25:29;0.63;;;0.63;;
30149;SDS011;16962;48.646;9.026;2024-02-26T13:28:18;2.75;;;0.57;;
30149;SDS011;16962;48.646;9.026;2024-02-26T13:31:08;0.70;;;0.60;;
30149;SDS011;16962;48.646;9.026;2024-02-26T13:33:56;0.50;;;0.50;;
30149;SDS011;16962;48.646;9.026;2024-02-26T13:36:44;0.30;;;0.30;;
30149;SDS011;16962;48.646;9.026;2024-02-26T13:39:33;0.93;;;0.60;;
30149;SDS011;16962;48.646;9.026;2024-02-26T13:42:26;0.50;;;0.50;;
30149;SDS011;16962;48.646;9.026;2024-02-26T13:45:13;0.40;;;0.40;;
30149;SDS011;16962;48.646;9.026;2024-02-26T13:48:02;1.33;;;0.30;;
30149;SDS011;16962;48.646;9.026;2024-02-26T13:50:57;0.40;;;0.40;;
30149;SDS011;16962;48.646;9.026;2024-02-26T13:53:50;1.65;;;0.40;;
30149;SDS011;16962;48.646;9.026;2024-02-26T13:56:45;0.43;;;0.40;;
30149;SDS011;16962;48.646;9.026;2024-02-26T13:59:34;0.68;;;0.55;;
30149;SDS011;16962;48.646;9.026;2024-02-26T14:02:22;0.38;;;0.38;;
30149;SDS011;16962;48.646;9.026;2024-02-26T14:05:11;0.38;;;0.38;;
30149;SDS011;16962;48.646;9.026;2024-02-26T14:07:59;0.50;;;0.38;;
30149;SDS011;16962;48.646;9.026;2024-02-26T14:10:47;1.33;;;0.30;;
30149;SDS011;16962;48.646;9.026;2024-02-26T14:13:38;0.50;;;0.47;;
30149;SDS011;16962;48.646;9.026;2024-02-26T14:16:29;0.90;;;0.60;;
30149;SDS011;16962;48.646;9.026;2024-02-26T14:19:18;0.52;;;0.50;;
30149;SDS011;16962;48.646;9.026;2024-02-26T14:22:12;0.60;;;0.60;;
30149;SDS011;16962;48.646;9.026;2024-02-26T14:25:03;3.13;;;0.80;;
30149;SDS011;16962;48.646;9.026;2024-02-26T14:27:53;0.43;;;0.43;;
30149;SDS011;16962;48.646;9.026;2024-02-26T14:30:41;0.55;;;0.45;;
30149;SDS011;16962;48.646;9.026;2024-02-26T14:33:30;1.55;;;0.60;;
30149;SDS011;16962;48.646;9.026;2024-02-26T14:36:22;0.50;;;0.50;;
30149;SDS011;16962;48.646;9.026;2024-02-26T14:39:09;0.40;;;0.40;;
30149;SDS011;16962;48.646;9.026;2024-02-26T14:42:00;1.30;;;0.50;;
30149;SDS011;16962;48.646;9.026;2024-02-26T14:44:50;0.75;;;0.75;;
30149;SDS011;16962;48.646;9.026;2024-02-26T14:47:37;1.90;;;0.55;;
30149;SDS011;16962;48.646;9.026;2024-02-26T14:50:25;0.73;;;0.60;;
30149;SDS011;16962;48.646;9.026;2024-02-26T14:53:19;0.40;;;0.40;;
30149;SDS011;16962;48.646;9.026;2024-02-26T14:56:07;0.45;;;0.45;;
30149;SDS011;16962;48.646;9.026;2024-02-26T14:58:56;1.85;;;0.50;;
30149;SDS011;16962;48.646;9.026;2024-02-26T15:01:52;1.00;;;0.70;;
30149;SDS011;16962;48.646;9.026;2024-02-26T15:04:49;1.08;;;0.73;;
30149;SDS011;16962;48.646;9.026;2024-02-26T15:07:46;1.35;;;0.60;;
30149;SDS011;16962;48.646;9.026;2024-02-26T15:10:34;1.27;;;0.75;;
30149;SDS011;16962;48.646;9.026;2024-02-26T15:13:22;0.82;;;0.70;;
30149;SDS011;16962;48.646;9.026;2024-02-26T15:16:20;0.60;;;0.60;;
30149;SDS011;16962;48.646;9.026;2024-02-26T15:19:11;0.60;;;0.60;;
30149;SDS011;16962;48.646;9.026;2024-02-26T15:22:03;0.70;;;0.70;;
30149;SDS011;16962;48.646;9.026;2024-02-26T15:24:53;7.32;;;1.20;;
30149;SDS011;16962;48.646;9.026;2024-02-26T15:27:41;1.45;;;0.90;;
30149;SDS011;16962;48.646;9.026;2024-02-26T15:30:30;4.07;;;1.40;;
30149;SDS011;16962;48.646;9.026;2024-02-26T15:33:19;1.60;;;1.20;;
30149;SDS011;16962;48.646;9.026;2024-02-26T15:36:08;2.35;;;1.45;;
30149;SDS011;16962;48.646;9.026;2024-02-26T15:38:57;1.50;;;1.00;;
30149;SDS011;16962;48.646;9.026;2024-02-26T15:41:45;2.25;;;1.30;;
30149;SDS011;16962;48.646;9.026;2024-02-26T15:44:40;1.00;;;0.90;;
30149;SDS011;16962;48.646;9.026;2024-02-26T15:47:29;1.38;;;1.25;;
30149;SDS011;16962;48.646;9.026;2024-02-26T15:50:17;3.78;;;1.33;;
30149;SDS011;16962;48.646;9.026;2024-02-26T15:53:04;2.53;;;2.22;;
30149;SDS011;16962;48.646;9.026;2024-02-26T15:55:51;1.75;;;1.20;;
30149;SDS011;16962;48.646;9.026;2024-02-26T15:58:39;2.10;;;1.67;;
30149;SDS011;16962;48.646;9.026;2024-02-26T16:01:27;6.30;;;3.00;;
30149;SDS011;16962;48.646;9.026;2024-02-26T16:04:18;1.75;;;1.50;;
30149;SDS011;16962;48.646;9.026;2024-02-26T16:07:06;9.70;;;1.98;;
30149;SDS011;16962;48.646;9.026;2024-02-26T16:10:06;7.13;;;2.72;;
30149;SDS011;16962;48.646;9.026;2024-02-26T16:12:55;3.55;;;1.80;;
30149;SDS011;16962;48.646;9.026;2024-02-26T16:15:48;8.45;;;6.15;;
30149;SDS011;16962;48.646;9.026;2024-02-26T16:18:46;4.78;;;3.33;;
30149;SDS011;16962;48.646;9.026;2024-02-26T16:21:33;4.18;;;1.40;;
30149;SDS011;16962;48.646;9.026;2024-02-26T16:24:21;4.78;;;1.50;;
30149;SDS011;16962;48.646;9.026;2024-02-26T16:27:09;2.47;;;1.50;;
30149;SDS011;16962;48.646;9.026;2024-02-26T16:29:56;4.03;;;1.45;;
30149;SDS011;16962;48.646;9.026;2024-02-26T16:32:44;1.92;;;1.70;;
30149;SDS011;16962;48.646;9.026;2024-02-26T16:35:31;2.20;;;1.40;;
30149;SDS011;16962;48.646;9.026;2024-02-26T16:38:20;1.60;;;1.50;;
30149;SDS011;16962;48.646;9.026;2024-02-26T16:41:08;4.63;;;1.67;;
30149;SDS011;16962;48.646;9.026;2024-02-26T16:43:56;2.50;;;2.00;;
30149;SDS011;16962;48.646;9.026;2024-02-26T16:46:44;5.50;;;2.20;;
30149;SDS011;16962;48.646;9.026;2024-02-26T16:49:32;3.90;;;2.45;;
30149;SDS011;16962;48.646;9.026;2024-02-26T16:52:21;2.50;;;2.28;;
30149;SDS011;16962;48.646;9.026;2024-02-26T16:55:09;3.83;;;2.05;;
30149;SDS011;16962;48.646;9.026;2024-02-26T16:57:57;4.43;;;2.38;;
30149;SDS011;16962;48.646;9.026;2024-02-26T17:00:45;4.18;;;2.63;;
30149;SDS011;16962;48.646;9.026;2024-02-26T17:03:33;6.47;;;3.05;;
30149;SDS011;16962;48.646;9.026;2024-02-26T17:06:21;3.78;;;2.58;;